sensor_id;sensor_type;location;lat;lon;timestamp;temperature;humidity
3648;DHT22;1840;48.892;15.312;2022-09-13T00:00:51;8.50;97.90
3648;DHT22;1840;48.892;15.312;2022-09-13T00:03:19;8.50;97.90
3648;DHT22;1840;48.892;15.312;2022-09-13T00:05:48;8.50;98.10
3648;DHT22;1840;48.892;15.312;2022-09-13T00:08:16;8.50;98.00
3648;DHT22;1840;48.892;15.312;2022-09-13T00:10:45;8.40;97.70
3648;DHT22;1840;48.892;15.312;2022-09-13T00:13:15;8.20;97.30
3648;DHT22;1840;48.892;15.312;2022-09-13T00:15:44;8.30;97.50
3648;DHT22;1840;48.892;15.312;2022-09-13T00:18:15;8.40;97.40
3648;DHT22;1840;48.892;15.312;2022-09-13T00:20:44;8.30;97.30
3648;DHT22;1840;48.892;15.312;2022-09-13T00:23:12;8.20;97.40
3648;DHT22;1840;48.892;15.312;2022-09-13T00:25:40;8.20;97.20
3648;DHT22;1840;48.892;15.312;2022-09-13T00:28:08;8.20;97.20
3648;DHT22;1840;48.892;15.312;2022-09-13T00:30:37;8.20;97.20
3648;DHT22;1840;48.892;15.312;2022-09-13T00:33:05;8.10;97.30
3648;DHT22;1840;48.892;15.312;2022-09-13T00:35:33;8.10;96.90
3648;DHT22;1840;48.892;15.312;2022-09-13T00:38:01;8.00;97.20
3648;DHT22;1840;48.892;15.312;2022-09-13T00:40:30;8.00;97.30
3648;DHT22;1840;48.892;15.312;2022-09-13T00:42:58;7.90;97.10
3648;DHT22;1840;48.892;15.312;2022-09-13T00:45:26;7.90;97.20
3648;DHT22;1840;48.892;15.312;2022-09-13T00:47:58;7.90;97.30
3648;DHT22;1840;48.892;15.312;2022-09-13T00:50:31;7.90;97.40
3648;DHT22;1840;48.892;15.312;2022-09-13T00:53:04;7.90;97.20
3648;DHT22;1840;48.892;15.312;2022-09-13T00:55:38;7.90;97.20
3648;DHT22;1840;48.892;15.312;2022-09-13T00:58:12;7.90;97.50
3648;DHT22;1840;48.892;15.312;2022-09-13T01:00:42;7.90;97.50
3648;DHT22;1840;48.892;15.312;2022-09-13T01:03:12;7.90;97.40
3648;DHT22;1840;48.892;15.312;2022-09-13T01:05:45;7.90;97.40
3648;DHT22;1840;48.892;15.312;2022-09-13T01:08:15;7.90;97.30
3648;DHT22;1840;48.892;15.312;2022-09-13T01:10:50;7.80;97.00
3648;DHT22;1840;48.892;15.312;2022-09-13T01:13:20;7.60;96.90
3648;DHT22;1840;48.892;15.312;2022-09-13T01:15:48;7.60;97.00
3648;DHT22;1840;48.892;15.312;2022-09-13T01:18:19;7.50;97.20
3648;DHT22;1840;48.892;15.312;2022-09-13T01:21:10;7.50;97.60
3648;DHT22;1840;48.892;15.312;2022-09-13T01:24:11;7.50;97.30
3648;DHT22;1840;48.892;15.312;2022-09-13T01:27:10;7.30;97.20
3648;DHT22;1840;48.892;15.312;2022-09-13T01:30:12;7.30;97.30
3648;DHT22;1840;48.892;15.312;2022-09-13T01:36:09;7.10;97.20
3648;DHT22;1840;48.892;15.312;2022-09-13T01:38:51;7.10;97.60
3648;DHT22;1840;48.892;15.312;2022-09-13T01:41:40;7.00;97.40
3648;DHT22;1840;48.892;15.312;2022-09-13T01:44:18;6.90;98.10
3648;DHT22;1840;48.892;15.312;2022-09-13T01:46:59;6.70;98.20
3648;DHT22;1840;48.892;15.312;2022-09-13T01:49:33;6.90;98.30
3648;DHT22;1840;48.892;15.312;2022-09-13T01:52:08;6.80;98.10
3648;DHT22;1840;48.892;15.312;2022-09-13T01:54:47;6.90;98.40
3648;DHT22;1840;48.892;15.312;2022-09-13T01:57:22;7.00;98.20
3648;DHT22;1840;48.892;15.312;2022-09-13T01:59:58;6.90;98.20
3648;DHT22;1840;48.892;15.312;2022-09-13T02:02:31;7.00;98.40
3648;DHT22;1840;48.892;15.312;2022-09-13T02:05:05;7.10;98.20
3648;DHT22;1840;48.892;15.312;2022-09-13T02:07:37;7.00;98.10
3648;DHT22;1840;48.892;15.312;2022-09-13T02:10:11;7.00;98.10
3648;DHT22;1840;48.892;15.312;2022-09-13T02:12:41;6.90;98.30
3648;DHT22;1840;48.892;15.312;2022-09-13T02:15:13;6.90;98.10
3648;DHT22;1840;48.892;15.312;2022-09-13T02:17:47;7.00;98.20
3648;DHT22;1840;48.892;15.312;2022-09-13T02:20:19;7.00;97.80
3648;DHT22;1840;48.892;15.312;2022-09-13T02:22:55;6.60;98.10
3648;DHT22;1840;48.892;15.312;2022-09-13T02:25:24;6.70;98.20
3648;DHT22;1840;48.892;15.312;2022-09-13T02:27:55;6.60;98.10
3648;DHT22;1840;48.892;15.312;2022-09-13T02:30:28;6.70;98.20
3648;DHT22;1840;48.892;15.312;2022-09-13T02:33:03;6.80;98.10
3648;DHT22;1840;48.892;15.312;2022-09-13T02:35:34;6.80;98.00
3648;DHT22;1840;48.892;15.312;2022-09-13T02:38:05;6.90;97.80
3648;DHT22;1840;48.892;15.312;2022-09-13T02:40:40;6.80;97.90
3648;DHT22;1840;48.892;15.312;2022-09-13T02:43:12;6.70;98.00
3648;DHT22;1840;48.892;15.312;2022-09-13T02:45:46;6.80;97.80
3648;DHT22;1840;48.892;15.312;2022-09-13T02:48:27;6.70;98.00
3648;DHT22;1840;48.892;15.312;2022-09-13T02:51:04;6.70;98.00
3648;DHT22;1840;48.892;15.312;2022-09-13T02:53:40;6.50;98.50
3648;DHT22;1840;48.892;15.312;2022-09-13T02:56:19;6.60;98.60
3648;DHT22;1840;48.892;15.312;2022-09-13T02:58:53;6.50;98.20
3648;DHT22;1840;48.892;15.312;2022-09-13T03:01:23;6.60;98.50
3648;DHT22;1840;48.892;15.312;2022-09-13T03:03:53;6.60;98.40
3648;DHT22;1840;48.892;15.312;2022-09-13T03:06:23;6.70;98.70
3648;DHT22;1840;48.892;15.312;2022-09-13T03:08:51;6.80;98.30
3648;DHT22;1840;48.892;15.312;2022-09-13T03:11:28;6.70;98.40
3648;DHT22;1840;48.892;15.312;2022-09-13T03:14:12;6.70;98.40
3648;DHT22;1840;48.892;15.312;2022-09-13T03:17:02;6.50;98.90
3648;DHT22;1840;48.892;15.312;2022-09-13T03:19:56;6.60;98.70
3648;DHT22;1840;48.892;15.312;2022-09-13T03:25:30;6.80;98.10
3648;DHT22;1840;48.892;15.312;2022-09-13T03:28:07;6.40;98.70
3648;DHT22;1840;48.892;15.312;2022-09-13T03:30:44;6.50;98.60
3648;DHT22;1840;48.892;15.312;2022-09-13T03:33:22;6.40;98.90
3648;DHT22;1840;48.892;15.312;2022-09-13T03:36:01;6.50;98.60
3648;DHT22;1840;48.892;15.312;2022-09-13T03:38:34;6.30;98.70
3648;DHT22;1840;48.892;15.312;2022-09-13T03:41:08;6.20;98.70
3648;DHT22;1840;48.892;15.312;2022-09-13T03:43:41;6.20;98.90
3648;DHT22;1840;48.892;15.312;2022-09-13T03:46:17;6.10;99.80
3648;DHT22;1840;48.892;15.312;2022-09-13T03:48:48;6.20;99.40
3648;DHT22;1840;48.892;15.312;2022-09-13T03:51:19;6.40;99.20
3648;DHT22;1840;48.892;15.312;2022-09-13T03:53:51;6.40;99.10
3648;DHT22;1840;48.892;15.312;2022-09-13T03:56:22;6.30;99.30
3648;DHT22;1840;48.892;15.312;2022-09-13T03:58:51;6.60;99.20
3648;DHT22;1840;48.892;15.312;2022-09-13T04:01:22;6.70;98.90
3648;DHT22;1840;48.892;15.312;2022-09-13T04:03:51;6.70;99.20
3648;DHT22;1840;48.892;15.312;2022-09-13T04:06:24;6.80;98.90
3648;DHT22;1840;48.892;15.312;2022-09-13T04:08:52;6.70;99.30
3648;DHT22;1840;48.892;15.312;2022-09-13T04:11:21;6.80;99.30
3648;DHT22;1840;48.892;15.312;2022-09-13T04:13:49;6.80;99.20
3648;DHT22;1840;48.892;15.312;2022-09-13T04:16:18;6.80;99.10
3648;DHT22;1840;48.892;15.312;2022-09-13T04:18:46;6.80;99.20
3648;DHT22;1840;48.892;15.312;2022-09-13T04:21:14;6.90;99.10
3648;DHT22;1840;48.892;15.312;2022-09-13T04:23:48;6.60;98.80
3648;DHT22;1840;48.892;15.312;2022-09-13T04:26:17;6.60;99.20
3648;DHT22;1840;48.892;15.312;2022-09-13T04:28:45;6.60;99.20
3648;DHT22;1840;48.892;15.312;2022-09-13T04:31:13;6.50;99.20
3648;DHT22;1840;48.892;15.312;2022-09-13T04:33:41;6.50;99.30
3648;DHT22;1840;48.892;15.312;2022-09-13T04:36:09;6.50;99.30
3648;DHT22;1840;48.892;15.312;2022-09-13T04:38:37;6.60;99.60
3648;DHT22;1840;48.892;15.312;2022-09-13T04:41:06;6.50;99.50
3648;DHT22;1840;48.892;15.312;2022-09-13T04:43:36;6.50;99.50
3648;DHT22;1840;48.892;15.312;2022-09-13T04:46:04;6.50;99.30
3648;DHT22;1840;48.892;15.312;2022-09-13T04:48:32;6.40;99.40
3648;DHT22;1840;48.892;15.312;2022-09-13T04:51:01;6.40;99.30
3648;DHT22;1840;48.892;15.312;2022-09-13T04:53:30;6.30;99.40
3648;DHT22;1840;48.892;15.312;2022-09-13T04:56:00;6.30;99.30
3648;DHT22;1840;48.892;15.312;2022-09-13T04:58:30;6.40;99.50
3648;DHT22;1840;48.892;15.312;2022-09-13T05:01:00;6.20;99.90
3648;DHT22;1840;48.892;15.312;2022-09-13T05:03:29;6.10;99.90
3648;DHT22;1840;48.892;15.312;2022-09-13T05:06:01;6.00;99.90
3648;DHT22;1840;48.892;15.312;2022-09-13T05:08:30;6.30;99.90
3648;DHT22;1840;48.892;15.312;2022-09-13T05:10:58;6.40;99.90
3648;DHT22;1840;48.892;15.312;2022-09-13T05:13:26;6.30;99.90
3648;DHT22;1840;48.892;15.312;2022-09-13T05:15:56;6.40;99.90
3648;DHT22;1840;48.892;15.312;2022-09-13T05:18:25;6.50;99.90
3648;DHT22;1840;48.892;15.312;2022-09-13T05:20:54;6.70;99.90
3648;DHT22;1840;48.892;15.312;2022-09-13T05:23:22;6.60;99.80
3648;DHT22;1840;48.892;15.312;2022-09-13T05:25:54;6.70;99.90
3648;DHT22;1840;48.892;15.312;2022-09-13T05:28:23;6.70;99.90
3648;DHT22;1840;48.892;15.312;2022-09-13T05:30:57;6.80;99.90
3648;DHT22;1840;48.892;15.312;2022-09-13T05:33:28;6.80;99.90
3648;DHT22;1840;48.892;15.312;2022-09-13T05:35:56;6.80;99.80
3648;DHT22;1840;48.892;15.312;2022-09-13T05:38:24;6.70;99.90
3648;DHT22;1840;48.892;15.312;2022-09-13T05:40:53;6.80;99.90
3648;DHT22;1840;48.892;15.312;2022-09-13T05:43:23;7.00;99.90
3648;DHT22;1840;48.892;15.312;2022-09-13T05:46:01;7.00;99.90
3648;DHT22;1840;48.892;15.312;2022-09-13T05:48:29;6.90;99.80
3648;DHT22;1840;48.892;15.312;2022-09-13T05:51:03;7.00;99.90
3648;DHT22;1840;48.892;15.312;2022-09-13T05:53:32;6.90;99.90
3648;DHT22;1840;48.892;15.312;2022-09-13T05:56:01;7.00;99.90
3648;DHT22;1840;48.892;15.312;2022-09-13T05:58:29;6.90;99.90
3648;DHT22;1840;48.892;15.312;2022-09-13T06:00:57;7.10;99.90
3648;DHT22;1840;48.892;15.312;2022-09-13T06:03:26;7.30;99.90
3648;DHT22;1840;48.892;15.312;2022-09-13T06:05:55;7.40;99.90
3648;DHT22;1840;48.892;15.312;2022-09-13T06:08:24;7.50;99.90
3648;DHT22;1840;48.892;15.312;2022-09-13T06:10:53;7.70;99.90
3648;DHT22;1840;48.892;15.312;2022-09-13T06:13:22;7.80;99.90
3648;DHT22;1840;48.892;15.312;2022-09-13T06:15:50;7.80;99.90
3648;DHT22;1840;48.892;15.312;2022-09-13T06:18:18;7.60;99.90
3648;DHT22;1840;48.892;15.312;2022-09-13T06:20:48;7.60;99.90
3648;DHT22;1840;48.892;15.312;2022-09-13T06:23:16;7.90;99.90
3648;DHT22;1840;48.892;15.312;2022-09-13T06:25:44;8.00;99.90
3648;DHT22;1840;48.892;15.312;2022-09-13T06:28:12;8.10;99.90
3648;DHT22;1840;48.892;15.312;2022-09-13T06:30:41;8.10;99.90
3648;DHT22;1840;48.892;15.312;2022-09-13T06:33:09;8.20;99.90
3648;DHT22;1840;48.892;15.312;2022-09-13T06:35:37;8.00;99.90
3648;DHT22;1840;48.892;15.312;2022-09-13T06:38:06;8.20;99.90
3648;DHT22;1840;48.892;15.312;2022-09-13T06:40:34;8.30;99.90
3648;DHT22;1840;48.892;15.312;2022-09-13T06:43:02;8.20;99.90
3648;DHT22;1840;48.892;15.312;2022-09-13T06:45:30;8.00;99.90
3648;DHT22;1840;48.892;15.312;2022-09-13T06:47:58;8.40;99.90
3648;DHT22;1840;48.892;15.312;2022-09-13T06:50:26;8.50;99.90
3648;DHT22;1840;48.892;15.312;2022-09-13T06:52:55;8.50;99.90
3648;DHT22;1840;48.892;15.312;2022-09-13T06:55:24;8.60;99.90
3648;DHT22;1840;48.892;15.312;2022-09-13T06:57:53;8.60;99.90
3648;DHT22;1840;48.892;15.312;2022-09-13T07:00:21;9.00;99.90
3648;DHT22;1840;48.892;15.312;2022-09-13T07:02:50;9.10;99.90
3648;DHT22;1840;48.892;15.312;2022-09-13T07:05:18;9.50;99.90
3648;DHT22;1840;48.892;15.312;2022-09-13T07:07:46;10.00;99.90
3648;DHT22;1840;48.892;15.312;2022-09-13T07:10:15;10.20;99.90
3648;DHT22;1840;48.892;15.312;2022-09-13T07:12:44;10.50;99.90
3648;DHT22;1840;48.892;15.312;2022-09-13T07:15:12;10.90;99.70
3648;DHT22;1840;48.892;15.312;2022-09-13T07:17:40;10.90;99.80
3648;DHT22;1840;48.892;15.312;2022-09-13T07:20:08;11.10;99.60
3648;DHT22;1840;48.892;15.312;2022-09-13T07:22:37;11.20;99.10
3648;DHT22;1840;48.892;15.312;2022-09-13T07:25:05;11.00;99.10
3648;DHT22;1840;48.892;15.312;2022-09-13T07:27:34;11.10;99.90
3648;DHT22;1840;48.892;15.312;2022-09-13T07:30:04;11.30;99.00
3648;DHT22;1840;48.892;15.312;2022-09-13T07:32:32;11.00;99.90
3648;DHT22;1840;48.892;15.312;2022-09-13T07:35:00;11.20;99.80
3648;DHT22;1840;48.892;15.312;2022-09-13T07:37:28;11.10;99.90
3648;DHT22;1840;48.892;15.312;2022-09-13T07:39:56;11.50;99.80
3648;DHT22;1840;48.892;15.312;2022-09-13T07:42:25;11.70;99.50
3648;DHT22;1840;48.892;15.312;2022-09-13T07:44:53;11.80;99.20
3648;DHT22;1840;48.892;15.312;2022-09-13T07:47:22;11.90;99.40
3648;DHT22;1840;48.892;15.312;2022-09-13T07:49:51;12.00;99.00
3648;DHT22;1840;48.892;15.312;2022-09-13T07:52:19;11.80;99.10
3648;DHT22;1840;48.892;15.312;2022-09-13T07:54:47;11.90;99.30
3648;DHT22;1840;48.892;15.312;2022-09-13T07:57:15;12.10;99.90
3648;DHT22;1840;48.892;15.312;2022-09-13T07:59:43;12.30;99.90
3648;DHT22;1840;48.892;15.312;2022-09-13T08:02:11;12.60;99.80
3648;DHT22;1840;48.892;15.312;2022-09-13T08:04:41;12.80;98.80
3648;DHT22;1840;48.892;15.312;2022-09-13T08:07:09;13.10;99.10
3648;DHT22;1840;48.892;15.312;2022-09-13T08:09:37;13.10;99.30
3648;DHT22;1840;48.892;15.312;2022-09-13T08:12:05;13.40;98.60
3648;DHT22;1840;48.892;15.312;2022-09-13T08:14:33;13.70;98.00
3648;DHT22;1840;48.892;15.312;2022-09-13T08:17:01;13.80;98.10
3648;DHT22;1840;48.892;15.312;2022-09-13T08:19:29;13.80;98.20
3648;DHT22;1840;48.892;15.312;2022-09-13T08:21:59;14.20;98.00
3648;DHT22;1840;48.892;15.312;2022-09-13T08:24:27;14.40;97.90
3648;DHT22;1840;48.892;15.312;2022-09-13T08:26:55;14.50;98.00
3648;DHT22;1840;48.892;15.312;2022-09-13T08:29:23;14.70;97.90
3648;DHT22;1840;48.892;15.312;2022-09-13T08:31:52;15.00;97.30
3648;DHT22;1840;48.892;15.312;2022-09-13T08:34:20;15.20;97.70
3648;DHT22;1840;48.892;15.312;2022-09-13T08:36:48;15.40;97.10
3648;DHT22;1840;48.892;15.312;2022-09-13T08:39:17;15.50;97.10
3648;DHT22;1840;48.892;15.312;2022-09-13T08:42:04;15.60;96.90
3648;DHT22;1840;48.892;15.312;2022-09-13T08:44:38;15.60;96.80
3648;DHT22;1840;48.892;15.312;2022-09-13T08:47:21;15.90;97.20
3648;DHT22;1840;48.892;15.312;2022-09-13T08:49:56;16.10;96.80
3648;DHT22;1840;48.892;15.312;2022-09-13T08:52:29;16.30;97.10
3648;DHT22;1840;48.892;15.312;2022-09-13T08:55:01;16.60;96.30
3648;DHT22;1840;48.892;15.312;2022-09-13T08:57:35;16.80;96.10
3648;DHT22;1840;48.892;15.312;2022-09-13T09:00:15;16.90;96.00
3648;DHT22;1840;48.892;15.312;2022-09-13T09:03:06;16.90;96.00
3648;DHT22;1840;48.892;15.312;2022-09-13T09:05:44;17.10;95.90
3648;DHT22;1840;48.892;15.312;2022-09-13T09:08:20;17.10;95.20
3648;DHT22;1840;48.892;15.312;2022-09-13T09:10:56;17.30;95.10
3648;DHT22;1840;48.892;15.312;2022-09-13T09:13:28;17.30;94.50
3648;DHT22;1840;48.892;15.312;2022-09-13T09:16:00;17.40;94.70
3648;DHT22;1840;48.892;15.312;2022-09-13T09:18:32;17.40;95.40
3648;DHT22;1840;48.892;15.312;2022-09-13T09:21:02;17.60;94.60
3648;DHT22;1840;48.892;15.312;2022-09-13T09:23:37;17.60;94.40
3648;DHT22;1840;48.892;15.312;2022-09-13T09:26:15;17.60;94.50
3648;DHT22;1840;48.892;15.312;2022-09-13T09:28:46;17.60;93.90
3648;DHT22;1840;48.892;15.312;2022-09-13T09:31:23;17.70;94.20
3648;DHT22;1840;48.892;15.312;2022-09-13T09:34:04;17.70;94.50
3648;DHT22;1840;48.892;15.312;2022-09-13T09:36:38;17.80;94.30
3648;DHT22;1840;48.892;15.312;2022-09-13T09:39:11;17.80;93.90
3648;DHT22;1840;48.892;15.312;2022-09-13T09:41:42;18.00;94.30
3648;DHT22;1840;48.892;15.312;2022-09-13T09:44:17;17.90;93.60
3648;DHT22;1840;48.892;15.312;2022-09-13T09:46:48;18.00;94.10
3648;DHT22;1840;48.892;15.312;2022-09-13T09:49:20;18.00;93.70
3648;DHT22;1840;48.892;15.312;2022-09-13T09:52:09;17.60;93.80
3648;DHT22;1840;48.892;15.312;2022-09-13T09:54:40;17.60;94.60
3648;DHT22;1840;48.892;15.312;2022-09-13T09:57:09;17.90;94.30
3648;DHT22;1840;48.892;15.312;2022-09-13T09:59:37;18.00;94.70
3648;DHT22;1840;48.892;15.312;2022-09-13T10:02:14;17.80;93.60
3648;DHT22;1840;48.892;15.312;2022-09-13T10:04:53;18.00;93.50
3648;DHT22;1840;48.892;15.312;2022-09-13T10:07:25;18.20;93.60
3648;DHT22;1840;48.892;15.312;2022-09-13T10:09:58;18.40;93.40
3648;DHT22;1840;48.892;15.312;2022-09-13T10:12:31;18.40;93.20
3648;DHT22;1840;48.892;15.312;2022-09-13T10:15:14;18.50;93.20
3648;DHT22;1840;48.892;15.312;2022-09-13T10:18:03;18.70;92.50
3648;DHT22;1840;48.892;15.312;2022-09-13T10:21:00;19.20;91.50
3648;DHT22;1840;48.892;15.312;2022-09-13T10:23:29;19.40;91.00
3648;DHT22;1840;48.892;15.312;2022-09-13T10:26:06;19.50;90.20
3648;DHT22;1840;48.892;15.312;2022-09-13T10:28:44;19.90;89.90
3648;DHT22;1840;48.892;15.312;2022-09-13T10:31:14;20.30;86.30
3648;DHT22;1840;48.892;15.312;2022-09-13T10:33:51;20.00;85.30
3648;DHT22;1840;48.892;15.312;2022-09-13T10:36:25;20.00;90.10
3648;DHT22;1840;48.892;15.312;2022-09-13T10:39:17;19.80;89.50
3648;DHT22;1840;48.892;15.312;2022-09-13T10:41:51;19.40;87.80
3648;DHT22;1840;48.892;15.312;2022-09-13T10:44:26;19.40;90.00
3648;DHT22;1840;48.892;15.312;2022-09-13T10:46:56;19.40;90.40
3648;DHT22;1840;48.892;15.312;2022-09-13T10:49:34;19.60;90.50
3648;DHT22;1840;48.892;15.312;2022-09-13T10:52:22;19.70;88.30
3648;DHT22;1840;48.892;15.312;2022-09-13T10:54:50;19.60;88.60
3648;DHT22;1840;48.892;15.312;2022-09-13T10:57:32;19.80;85.70
3648;DHT22;1840;48.892;15.312;2022-09-13T11:00:04;19.60;86.50
3648;DHT22;1840;48.892;15.312;2022-09-13T11:03:01;19.50;86.40
3648;DHT22;1840;48.892;15.312;2022-09-13T11:05:34;19.20;86.30
3648;DHT22;1840;48.892;15.312;2022-09-13T11:08:28;19.50;87.70
3648;DHT22;1840;48.892;15.312;2022-09-13T11:11:09;19.70;86.00
3648;DHT22;1840;48.892;15.312;2022-09-13T11:13:49;19.80;85.60
3648;DHT22;1840;48.892;15.312;2022-09-13T11:16:38;19.90;85.60
3648;DHT22;1840;48.892;15.312;2022-09-13T11:22:29;19.90;86.00
3648;DHT22;1840;48.892;15.312;2022-09-13T11:25:08;19.80;86.00
3648;DHT22;1840;48.892;15.312;2022-09-13T11:27:48;19.70;85.90
3648;DHT22;1840;48.892;15.312;2022-09-13T11:30:19;19.90;84.90
3648;DHT22;1840;48.892;15.312;2022-09-13T11:33:18;20.00;84.40
3648;DHT22;1840;48.892;15.312;2022-09-13T11:35:59;20.00;84.10
3648;DHT22;1840;48.892;15.312;2022-09-13T11:38:35;20.00;83.30
3648;DHT22;1840;48.892;15.312;2022-09-13T11:41:16;20.20;86.10
3648;DHT22;1840;48.892;15.312;2022-09-13T11:46:48;20.00;85.40
3648;DHT22;1840;48.892;15.312;2022-09-13T11:49:33;20.20;84.80
3648;DHT22;1840;48.892;15.312;2022-09-13T11:52:11;20.60;82.20
3648;DHT22;1840;48.892;15.312;2022-09-13T11:54:54;20.80;84.10
3648;DHT22;1840;48.892;15.312;2022-09-13T11:57:29;20.70;85.00
3648;DHT22;1840;48.892;15.312;2022-09-13T12:00:02;20.80;85.90
3648;DHT22;1840;48.892;15.312;2022-09-13T12:02:38;20.80;83.70
3648;DHT22;1840;48.892;15.312;2022-09-13T12:05:13;21.00;82.20
3648;DHT22;1840;48.892;15.312;2022-09-13T12:07:54;21.40;81.30
3648;DHT22;1840;48.892;15.312;2022-09-13T12:10:27;21.40;83.40
3648;DHT22;1840;48.892;15.312;2022-09-13T12:12:57;21.20;83.60
3648;DHT22;1840;48.892;15.312;2022-09-13T12:15:34;21.10;81.80
3648;DHT22;1840;48.892;15.312;2022-09-13T12:18:09;21.20;84.80
3648;DHT22;1840;48.892;15.312;2022-09-13T12:20:45;21.50;81.50
3648;DHT22;1840;48.892;15.312;2022-09-13T12:23:18;21.60;80.10
3648;DHT22;1840;48.892;15.312;2022-09-13T12:25:52;21.40;81.50
3648;DHT22;1840;48.892;15.312;2022-09-13T12:28:25;21.20;82.30
3648;DHT22;1840;48.892;15.312;2022-09-13T12:30:57;20.90;82.00
3648;DHT22;1840;48.892;15.312;2022-09-13T12:33:26;20.80;81.70
3648;DHT22;1840;48.892;15.312;2022-09-13T12:36:18;20.70;81.90
3648;DHT22;1840;48.892;15.312;2022-09-13T12:39:04;20.70;80.60
3648;DHT22;1840;48.892;15.312;2022-09-13T12:41:45;20.70;81.90
3648;DHT22;1840;48.892;15.312;2022-09-13T12:44:41;20.50;84.50
3648;DHT22;1840;48.892;15.312;2022-09-13T12:47:43;20.50;83.80
3648;DHT22;1840;48.892;15.312;2022-09-13T12:50:40;20.50;81.80
3648;DHT22;1840;48.892;15.312;2022-09-13T12:53:34;20.60;78.90
3648;DHT22;1840;48.892;15.312;2022-09-13T12:56:22;20.90;80.50
3648;DHT22;1840;48.892;15.312;2022-09-13T13:02:02;20.70;81.80
3648;DHT22;1840;48.892;15.312;2022-09-13T13:04:33;20.70;83.40
3648;DHT22;1840;48.892;15.312;2022-09-13T13:07:05;20.70;83.20
3648;DHT22;1840;48.892;15.312;2022-09-13T13:09:38;20.50;82.40
3648;DHT22;1840;48.892;15.312;2022-09-13T13:12:09;20.40;80.80
3648;DHT22;1840;48.892;15.312;2022-09-13T13:14:47;20.30;81.40
3648;DHT22;1840;48.892;15.312;2022-09-13T13:17:43;20.40;82.00
3648;DHT22;1840;48.892;15.312;2022-09-13T13:20:41;20.40;81.70
3648;DHT22;1840;48.892;15.312;2022-09-13T13:23:20;20.50;82.10
3648;DHT22;1840;48.892;15.312;2022-09-13T13:29:14;20.60;82.90
3648;DHT22;1840;48.892;15.312;2022-09-13T13:34:40;20.80;80.80
3648;DHT22;1840;48.892;15.312;2022-09-13T13:37:28;20.90;80.80
3648;DHT22;1840;48.892;15.312;2022-09-13T13:40:19;21.10;81.00
3648;DHT22;1840;48.892;15.312;2022-09-13T13:42:47;20.90;81.00
3648;DHT22;1840;48.892;15.312;2022-09-13T13:45:23;20.90;82.00
3648;DHT22;1840;48.892;15.312;2022-09-13T13:48:07;20.80;82.60
3648;DHT22;1840;48.892;15.312;2022-09-13T13:53:39;20.70;84.10
3648;DHT22;1840;48.892;15.312;2022-09-13T13:56:17;20.70;84.00
3648;DHT22;1840;48.892;15.312;2022-09-13T13:58:49;20.70;81.50
3648;DHT22;1840;48.892;15.312;2022-09-13T14:01:23;20.50;83.00
3648;DHT22;1840;48.892;15.312;2022-09-13T14:07:07;20.50;83.10
3648;DHT22;1840;48.892;15.312;2022-09-13T14:09:50;20.40;83.20
3648;DHT22;1840;48.892;15.312;2022-09-13T14:12:34;20.40;83.30
3648;DHT22;1840;48.892;15.312;2022-09-13T14:15:17;20.10;82.80
3648;DHT22;1840;48.892;15.312;2022-09-13T14:18:01;20.20;84.80
3648;DHT22;1840;48.892;15.312;2022-09-13T14:20:30;20.20;83.30
3648;DHT22;1840;48.892;15.312;2022-09-13T14:23:14;20.20;84.60
3648;DHT22;1840;48.892;15.312;2022-09-13T14:25:43;20.20;85.10
3648;DHT22;1840;48.892;15.312;2022-09-13T14:28:14;20.20;84.60
3648;DHT22;1840;48.892;15.312;2022-09-13T14:30:45;20.20;84.70
3648;DHT22;1840;48.892;15.312;2022-09-13T14:33:23;20.20;84.30
3648;DHT22;1840;48.892;15.312;2022-09-13T14:36:01;20.30;85.30
3648;DHT22;1840;48.892;15.312;2022-09-13T14:38:31;20.20;84.40
3648;DHT22;1840;48.892;15.312;2022-09-13T14:41:12;20.30;85.30
3648;DHT22;1840;48.892;15.312;2022-09-13T14:43:41;20.30;85.90
3648;DHT22;1840;48.892;15.312;2022-09-13T14:46:13;20.40;84.60
3648;DHT22;1840;48.892;15.312;2022-09-13T14:48:46;20.50;84.20
3648;DHT22;1840;48.892;15.312;2022-09-13T14:51:20;20.60;84.10
3648;DHT22;1840;48.892;15.312;2022-09-13T14:53:51;20.70;83.70
3648;DHT22;1840;48.892;15.312;2022-09-13T14:56:26;20.50;85.80
3648;DHT22;1840;48.892;15.312;2022-09-13T14:58:57;20.40;86.60
3648;DHT22;1840;48.892;15.312;2022-09-13T15:01:29;20.30;88.80
3648;DHT22;1840;48.892;15.312;2022-09-13T15:04:01;20.10;88.50
3648;DHT22;1840;48.892;15.312;2022-09-13T15:06:32;20.10;89.40
3648;DHT22;1840;48.892;15.312;2022-09-13T15:09:13;20.00;89.40
3648;DHT22;1840;48.892;15.312;2022-09-13T15:11:55;19.90;89.10
3648;DHT22;1840;48.892;15.312;2022-09-13T15:14:26;19.90;87.70
3648;DHT22;1840;48.892;15.312;2022-09-13T15:16:58;19.80;89.50
3648;DHT22;1840;48.892;15.312;2022-09-13T15:19:34;19.70;90.60
3648;DHT22;1840;48.892;15.312;2022-09-13T15:22:17;19.70;90.30
3648;DHT22;1840;48.892;15.312;2022-09-13T15:24:49;19.70;90.20
3648;DHT22;1840;48.892;15.312;2022-09-13T15:27:20;19.80;90.40
3648;DHT22;1840;48.892;15.312;2022-09-13T15:29:50;19.70;90.40
3648;DHT22;1840;48.892;15.312;2022-09-13T15:32:21;19.70;90.30
3648;DHT22;1840;48.892;15.312;2022-09-13T15:34:51;19.70;90.20
3648;DHT22;1840;48.892;15.312;2022-09-13T15:37:31;19.60;90.70
3648;DHT22;1840;48.892;15.312;2022-09-13T15:40:27;19.70;91.30
3648;DHT22;1840;48.892;15.312;2022-09-13T15:42:56;19.60;91.40
3648;DHT22;1840;48.892;15.312;2022-09-13T15:45:24;19.70;91.60
3648;DHT22;1840;48.892;15.312;2022-09-13T15:47:52;19.80;92.20
3648;DHT22;1840;48.892;15.312;2022-09-13T15:50:24;19.70;92.20
3648;DHT22;1840;48.892;15.312;2022-09-13T15:52:54;19.60;92.40
3648;DHT22;1840;48.892;15.312;2022-09-13T15:55:23;19.50;92.00
3648;DHT22;1840;48.892;15.312;2022-09-13T15:57:51;19.60;91.40
3648;DHT22;1840;48.892;15.312;2022-09-13T16:00:21;19.60;91.30
3648;DHT22;1840;48.892;15.312;2022-09-13T16:02:50;19.50;91.20
3648;DHT22;1840;48.892;15.312;2022-09-13T16:05:18;19.50;91.20
3648;DHT22;1840;48.892;15.312;2022-09-13T16:07:48;19.50;91.30
3648;DHT22;1840;48.892;15.312;2022-09-13T16:10:18;19.40;91.40
3648;DHT22;1840;48.892;15.312;2022-09-13T16:12:46;19.30;91.60
3648;DHT22;1840;48.892;15.312;2022-09-13T16:15:14;19.30;91.70
3648;DHT22;1840;48.892;15.312;2022-09-13T16:17:43;19.20;91.80
3648;DHT22;1840;48.892;15.312;2022-09-13T16:20:12;19.20;92.00
3648;DHT22;1840;48.892;15.312;2022-09-13T16:22:41;19.20;91.90
3648;DHT22;1840;48.892;15.312;2022-09-13T16:25:11;19.10;91.80
3648;DHT22;1840;48.892;15.312;2022-09-13T16:27:40;19.10;92.00
3648;DHT22;1840;48.892;15.312;2022-09-13T16:30:10;19.10;92.30
3648;DHT22;1840;48.892;15.312;2022-09-13T16:32:39;19.10;92.00
3648;DHT22;1840;48.892;15.312;2022-09-13T16:35:08;19.20;91.60
3648;DHT22;1840;48.892;15.312;2022-09-13T16:37:37;19.30;91.60
3648;DHT22;1840;48.892;15.312;2022-09-13T16:40:06;19.20;91.70
3648;DHT22;1840;48.892;15.312;2022-09-13T16:42:37;19.20;92.00
3648;DHT22;1840;48.892;15.312;2022-09-13T16:45:06;19.20;92.40
3648;DHT22;1840;48.892;15.312;2022-09-13T16:47:34;19.20;92.40
3648;DHT22;1840;48.892;15.312;2022-09-13T16:50:03;19.10;92.80
3648;DHT22;1840;48.892;15.312;2022-09-13T16:52:32;18.90;92.80
3648;DHT22;1840;48.892;15.312;2022-09-13T16:55:01;18.80;92.80
3648;DHT22;1840;48.892;15.312;2022-09-13T16:57:29;18.90;92.70
3648;DHT22;1840;48.892;15.312;2022-09-13T16:59:59;18.80;92.90